sensor_id;sensor_type;location;lat;lon;timestamp;temperature;humidity
11846;DHT22;5982;37.494;-8.758;2023-04-25T00:02:02;15.00;99.90
11846;DHT22;5982;37.494;-8.758;2023-04-25T00:04:32;14.90;99.90
11846;DHT22;5982;37.494;-8.758;2023-04-25T00:07:00;14.90;99.90
11846;DHT22;5982;37.494;-8.758;2023-04-25T00:09:28;15.00;99.90
11846;DHT22;5982;37.494;-8.758;2023-04-25T00:11:56;15.00;99.90
11846;DHT22;5982;37.494;-8.758;2023-04-25T00:14:24;15.10;99.90
11846;DHT22;5982;37.494;-8.758;2023-04-25T00:16:53;15.00;99.90
11846;DHT22;5982;37.494;-8.758;2023-04-25T00:19:21;15.00;99.90
11846;DHT22;5982;37.494;-8.758;2023-04-25T00:21:50;15.00;99.90
11846;DHT22;5982;37.494;-8.758;2023-04-25T00:24:19;15.00;99.90
11846;DHT22;5982;37.494;-8.758;2023-04-25T00:26:47;15.10;99.90
11846;DHT22;5982;37.494;-8.758;2023-04-25T00:29:14;15.00;99.90
11846;DHT22;5982;37.494;-8.758;2023-04-25T00:31:42;15.00;99.90
11846;DHT22;5982;37.494;-8.758;2023-04-25T00:34:10;14.90;99.90
11846;DHT22;5982;37.494;-8.758;2023-04-25T00:36:38;14.80;99.90
11846;DHT22;5982;37.494;-8.758;2023-04-25T00:39:07;14.70;99.90
11846;DHT22;5982;37.494;-8.758;2023-04-25T00:41:35;14.70;99.90
11846;DHT22;5982;37.494;-8.758;2023-04-25T00:44:03;14.70;99.90
11846;DHT22;5982;37.494;-8.758;2023-04-25T00:46:32;14.70;99.90
11846;DHT22;5982;37.494;-8.758;2023-04-25T00:49:00;14.70;99.90
11846;DHT22;5982;37.494;-8.758;2023-04-25T00:51:28;14.70;99.90
11846;DHT22;5982;37.494;-8.758;2023-04-25T00:53:56;14.80;99.90
11846;DHT22;5982;37.494;-8.758;2023-04-25T00:56:25;14.80;99.90
11846;DHT22;5982;37.494;-8.758;2023-04-25T00:58:53;14.80;99.90
11846;DHT22;5982;37.494;-8.758;2023-04-25T01:01:22;14.80;99.90
11846;DHT22;5982;37.494;-8.758;2023-04-25T01:03:50;14.70;99.90
11846;DHT22;5982;37.494;-8.758;2023-04-25T01:06:18;14.60;99.90
11846;DHT22;5982;37.494;-8.758;2023-04-25T01:08:46;14.60;99.90
11846;DHT22;5982;37.494;-8.758;2023-04-25T01:11:14;14.50;99.90
11846;DHT22;5982;37.494;-8.758;2023-04-25T01:13:43;14.40;99.90
11846;DHT22;5982;37.494;-8.758;2023-04-25T01:16:11;14.50;99.90
11846;DHT22;5982;37.494;-8.758;2023-04-25T01:18:38;14.50;99.90
11846;DHT22;5982;37.494;-8.758;2023-04-25T01:21:09;14.40;99.90
11846;DHT22;5982;37.494;-8.758;2023-04-25T01:23:37;14.40;99.90
11846;DHT22;5982;37.494;-8.758;2023-04-25T01:26:06;14.30;99.90
11846;DHT22;5982;37.494;-8.758;2023-04-25T01:28:34;14.40;99.90
11846;DHT22;5982;37.494;-8.758;2023-04-25T01:31:01;14.30;99.90
11846;DHT22;5982;37.494;-8.758;2023-04-25T01:33:29;14.20;99.90
11846;DHT22;5982;37.494;-8.758;2023-04-25T01:35:57;14.20;99.90
11846;DHT22;5982;37.494;-8.758;2023-04-25T01:38:27;14.20;99.90
11846;DHT22;5982;37.494;-8.758;2023-04-25T01:40:54;14.20;99.90
11846;DHT22;5982;37.494;-8.758;2023-04-25T01:43:22;14.20;99.90
11846;DHT22;5982;37.494;-8.758;2023-04-25T01:45:52;14.30;99.90
11846;DHT22;5982;37.494;-8.758;2023-04-25T01:48:19;14.30;99.90
11846;DHT22;5982;37.494;-8.758;2023-04-25T01:50:47;14.40;99.90
11846;DHT22;5982;37.494;-8.758;2023-04-25T01:53:15;14.50;99.90
11846;DHT22;5982;37.494;-8.758;2023-04-25T01:55:44;14.60;99.90
11846;DHT22;5982;37.494;-8.758;2023-04-25T01:58:12;14.60;99.90
11846;DHT22;5982;37.494;-8.758;2023-04-25T02:00:40;14.60;99.90
11846;DHT22;5982;37.494;-8.758;2023-04-25T02:03:08;14.60;99.90
11846;DHT22;5982;37.494;-8.758;2023-04-25T02:05:36;14.60;99.90
11846;DHT22;5982;37.494;-8.758;2023-04-25T02:08:04;14.60;99.90
11846;DHT22;5982;37.494;-8.758;2023-04-25T02:10:32;14.70;99.90
11846;DHT22;5982;37.494;-8.758;2023-04-25T02:13:02;14.80;99.90
11846;DHT22;5982;37.494;-8.758;2023-04-25T02:15:30;14.80;99.90
11846;DHT22;5982;37.494;-8.758;2023-04-25T02:17:58;14.80;99.90
11846;DHT22;5982;37.494;-8.758;2023-04-25T02:20:28;14.80;99.90
11846;DHT22;5982;37.494;-8.758;2023-04-25T02:22:57;15.00;99.90
11846;DHT22;5982;37.494;-8.758;2023-04-25T02:25:25;15.10;99.90
11846;DHT22;5982;37.494;-8.758;2023-04-25T02:27:53;15.10;99.90
11846;DHT22;5982;37.494;-8.758;2023-04-25T02:30:23;15.10;99.90
11846;DHT22;5982;37.494;-8.758;2023-04-25T02:32:51;15.00;99.90
11846;DHT22;5982;37.494;-8.758;2023-04-25T02:35:19;15.00;99.90
11846;DHT22;5982;37.494;-8.758;2023-04-25T02:37:47;15.00;99.90
11846;DHT22;5982;37.494;-8.758;2023-04-25T02:40:15;15.00;99.90
11846;DHT22;5982;37.494;-8.758;2023-04-25T02:42:43;15.10;99.90
11846;DHT22;5982;37.494;-8.758;2023-04-25T02:45:11;15.20;99.90
11846;DHT22;5982;37.494;-8.758;2023-04-25T02:47:41;15.20;99.90
11846;DHT22;5982;37.494;-8.758;2023-04-25T02:50:09;15.20;99.90
11846;DHT22;5982;37.494;-8.758;2023-04-25T02:52:36;15.00;99.90
11846;DHT22;5982;37.494;-8.758;2023-04-25T02:55:05;15.00;99.90
11846;DHT22;5982;37.494;-8.758;2023-04-25T02:57:33;15.00;99.90
11846;DHT22;5982;37.494;-8.758;2023-04-25T03:00:01;15.10;99.90
11846;DHT22;5982;37.494;-8.758;2023-04-25T03:02:31;15.20;99.90
11846;DHT22;5982;37.494;-8.758;2023-04-25T03:05:00;15.30;99.90
11846;DHT22;5982;37.494;-8.758;2023-04-25T03:07:28;15.40;99.90
11846;DHT22;5982;37.494;-8.758;2023-04-25T03:09:56;15.50;99.90
11846;DHT22;5982;37.494;-8.758;2023-04-25T03:12:24;15.50;99.90
11846;DHT22;5982;37.494;-8.758;2023-04-25T03:14:52;15.50;99.90
11846;DHT22;5982;37.494;-8.758;2023-04-25T03:17:20;15.60;99.90
11846;DHT22;5982;37.494;-8.758;2023-04-25T03:19:48;15.60;99.90
11846;DHT22;5982;37.494;-8.758;2023-04-25T03:22:17;15.50;99.90
11846;DHT22;5982;37.494;-8.758;2023-04-25T03:24:45;15.50;99.90
11846;DHT22;5982;37.494;-8.758;2023-04-25T03:27:13;15.60;99.90
11846;DHT22;5982;37.494;-8.758;2023-04-25T03:29:41;15.70;99.90
11846;DHT22;5982;37.494;-8.758;2023-04-25T03:32:08;15.80;99.90
11846;DHT22;5982;37.494;-8.758;2023-04-25T03:34:36;15.70;99.90
11846;DHT22;5982;37.494;-8.758;2023-04-25T03:37:04;15.70;99.90
11846;DHT22;5982;37.494;-8.758;2023-04-25T03:39:33;15.70;99.90
11846;DHT22;5982;37.494;-8.758;2023-04-25T03:42:01;15.70;99.90
11846;DHT22;5982;37.494;-8.758;2023-04-25T03:44:29;15.80;99.90
11846;DHT22;5982;37.494;-8.758;2023-04-25T03:46:57;15.80;99.90
11846;DHT22;5982;37.494;-8.758;2023-04-25T03:49:29;15.90;99.90
11846;DHT22;5982;37.494;-8.758;2023-04-25T03:51:57;15.90;99.90
11846;DHT22;5982;37.494;-8.758;2023-04-25T03:54:25;15.80;99.90
11846;DHT22;5982;37.494;-8.758;2023-04-25T03:56:55;15.90;99.90
11846;DHT22;5982;37.494;-8.758;2023-04-25T03:59:22;15.80;99.90
11846;DHT22;5982;37.494;-8.758;2023-04-25T04:01:50;15.60;99.90
11846;DHT22;5982;37.494;-8.758;2023-04-25T04:04:19;15.50;99.90
11846;DHT22;5982;37.494;-8.758;2023-04-25T04:06:47;15.40;99.90
11846;DHT22;5982;37.494;-8.758;2023-04-25T04:09:15;15.40;99.90
11846;DHT22;5982;37.494;-8.758;2023-04-25T04:11:43;15.40;99.90
11846;DHT22;5982;37.494;-8.758;2023-04-25T04:14:12;15.30;99.90
11846;DHT22;5982;37.494;-8.758;2023-04-25T04:16:40;15.20;99.90
11846;DHT22;5982;37.494;-8.758;2023-04-25T04:19:08;15.20;99.90
11846;DHT22;5982;37.494;-8.758;2023-04-25T04:21:36;15.30;99.90
11846;DHT22;5982;37.494;-8.758;2023-04-25T04:24:04;15.20;99.90
11846;DHT22;5982;37.494;-8.758;2023-04-25T04:26:32;15.20;99.90
11846;DHT22;5982;37.494;-8.758;2023-04-25T04:29:00;15.30;99.90
11846;DHT22;5982;37.494;-8.758;2023-04-25T04:31:30;15.30;99.90
11846;DHT22;5982;37.494;-8.758;2023-04-25T04:33:58;15.30;99.90
11846;DHT22;5982;37.494;-8.758;2023-04-25T04:36:27;15.20;99.90
11846;DHT22;5982;37.494;-8.758;2023-04-25T04:38:55;15.10;99.90
11846;DHT22;5982;37.494;-8.758;2023-04-25T04:41:23;14.90;99.90
11846;DHT22;5982;37.494;-8.758;2023-04-25T04:43:50;14.90;99.90
11846;DHT22;5982;37.494;-8.758;2023-04-25T04:46:18;14.80;99.90
11846;DHT22;5982;37.494;-8.758;2023-04-25T04:48:48;14.70;99.90
11846;DHT22;5982;37.494;-8.758;2023-04-25T04:51:16;14.70;99.90
11846;DHT22;5982;37.494;-8.758;2023-04-25T04:53:43;14.60;99.90
11846;DHT22;5982;37.494;-8.758;2023-04-25T04:56:11;14.50;99.90
11846;DHT22;5982;37.494;-8.758;2023-04-25T04:58:39;14.50;99.90
11846;DHT22;5982;37.494;-8.758;2023-04-25T05:01:07;14.50;99.90
11846;DHT22;5982;37.494;-8.758;2023-04-25T05:03:34;14.40;99.90
11846;DHT22;5982;37.494;-8.758;2023-04-25T05:06:04;14.40;99.90
11846;DHT22;5982;37.494;-8.758;2023-04-25T05:08:32;14.30;99.90
11846;DHT22;5982;37.494;-8.758;2023-04-25T05:11:00;14.20;99.90
11846;DHT22;5982;37.494;-8.758;2023-04-25T05:13:28;13.90;99.90
11846;DHT22;5982;37.494;-8.758;2023-04-25T05:15:55;13.80;99.90
11846;DHT22;5982;37.494;-8.758;2023-04-25T05:18:23;13.60;99.90
11846;DHT22;5982;37.494;-8.758;2023-04-25T05:20:51;13.50;99.90
11846;DHT22;5982;37.494;-8.758;2023-04-25T05:23:21;13.60;99.90
11846;DHT22;5982;37.494;-8.758;2023-04-25T05:25:48;13.70;99.90
11846;DHT22;5982;37.494;-8.758;2023-04-25T05:28:16;13.70;99.90
11846;DHT22;5982;37.494;-8.758;2023-04-25T05:30:44;13.60;99.90
11846;DHT22;5982;37.494;-8.758;2023-04-25T05:33:12;13.60;99.90
11846;DHT22;5982;37.494;-8.758;2023-04-25T05:35:40;13.70;99.90
11846;DHT22;5982;37.494;-8.758;2023-04-25T05:38:08;13.80;99.90
11846;DHT22;5982;37.494;-8.758;2023-04-25T05:40:37;13.80;99.90
11846;DHT22;5982;37.494;-8.758;2023-04-25T05:43:05;13.90;99.90
11846;DHT22;5982;37.494;-8.758;2023-04-25T05:45:33;14.00;99.90
11846;DHT22;5982;37.494;-8.758;2023-04-25T05:48:01;14.00;99.90
11846;DHT22;5982;37.494;-8.758;2023-04-25T05:50:28;14.00;99.90
11846;DHT22;5982;37.494;-8.758;2023-04-25T05:52:56;14.00;99.90
11846;DHT22;5982;37.494;-8.758;2023-04-25T05:55:24;14.00;99.90
11846;DHT22;5982;37.494;-8.758;2023-04-25T05:57:54;14.00;99.90
11846;DHT22;5982;37.494;-8.758;2023-04-25T06:00:21;13.90;99.90
11846;DHT22;5982;37.494;-8.758;2023-04-25T06:02:49;13.90;99.90
11846;DHT22;5982;37.494;-8.758;2023-04-25T06:05:17;13.90;99.90
11846;DHT22;5982;37.494;-8.758;2023-04-25T06:07:45;14.00;99.90
11846;DHT22;5982;37.494;-8.758;2023-04-25T06:10:12;14.10;99.90
11846;DHT22;5982;37.494;-8.758;2023-04-25T06:12:40;14.40;99.90
11846;DHT22;5982;37.494;-8.758;2023-04-25T06:15:10;15.20;99.90
11846;DHT22;5982;37.494;-8.758;2023-04-25T06:17:38;16.00;99.90
11846;DHT22;5982;37.494;-8.758;2023-04-25T06:20:06;16.80;99.90
11846;DHT22;5982;37.494;-8.758;2023-04-25T06:22:35;17.60;99.90
11846;DHT22;5982;37.494;-8.758;2023-04-25T06:25:03;18.20;99.90
11846;DHT22;5982;37.494;-8.758;2023-04-25T06:27:32;18.70;99.90
11846;DHT22;5982;37.494;-8.758;2023-04-25T06:30:00;19.40;99.90
11846;DHT22;5982;37.494;-8.758;2023-04-25T06:32:30;20.10;99.90
11846;DHT22;5982;37.494;-8.758;2023-04-25T06:34:58;20.70;99.90
11846;DHT22;5982;37.494;-8.758;2023-04-25T06:37:25;21.30;99.90
11846;DHT22;5982;37.494;-8.758;2023-04-25T06:39:53;21.80;99.90
11846;DHT22;5982;37.494;-8.758;2023-04-25T06:42:21;22.20;99.90
11846;DHT22;5982;37.494;-8.758;2023-04-25T06:44:49;22.60;99.90
11846;DHT22;5982;37.494;-8.758;2023-04-25T06:47:17;23.00;99.90
11846;DHT22;5982;37.494;-8.758;2023-04-25T06:49:46;23.90;99.90
11846;DHT22;5982;37.494;-8.758;2023-04-25T06:52:14;24.80;99.90
11846;DHT22;5982;37.494;-8.758;2023-04-25T06:54:43;25.40;99.90
11846;DHT22;5982;37.494;-8.758;2023-04-25T06:57:11;25.50;99.90
11846;DHT22;5982;37.494;-8.758;2023-04-25T06:59:39;25.90;99.90
11846;DHT22;5982;37.494;-8.758;2023-04-25T07:02:07;26.10;99.90
11846;DHT22;5982;37.494;-8.758;2023-04-25T07:04:35;25.60;99.90
11846;DHT22;5982;37.494;-8.758;2023-04-25T07:07:04;24.70;99.90
11846;DHT22;5982;37.494;-8.758;2023-04-25T07:09:32;23.50;99.90
11846;DHT22;5982;37.494;-8.758;2023-04-25T07:12:00;22.10;99.90
11846;DHT22;5982;37.494;-8.758;2023-04-25T07:14:28;21.00;99.90
11846;DHT22;5982;37.494;-8.758;2023-04-25T07:16:55;20.50;99.90
11846;DHT22;5982;37.494;-8.758;2023-04-25T07:19:23;20.30;99.90
11846;DHT22;5982;37.494;-8.758;2023-04-25T07:21:52;20.30;99.90
11846;DHT22;5982;37.494;-8.758;2023-04-25T07:24:21;20.40;99.90
11846;DHT22;5982;37.494;-8.758;2023-04-25T07:26:49;20.50;99.90
11846;DHT22;5982;37.494;-8.758;2023-04-25T07:29:17;20.60;99.90
11846;DHT22;5982;37.494;-8.758;2023-04-25T07:31:44;20.70;99.90
11846;DHT22;5982;37.494;-8.758;2023-04-25T07:34:12;20.70;99.90
11846;DHT22;5982;37.494;-8.758;2023-04-25T07:36:41;20.90;99.90
11846;DHT22;5982;37.494;-8.758;2023-04-25T07:39:08;21.00;99.90
11846;DHT22;5982;37.494;-8.758;2023-04-25T07:41:38;20.90;99.90
11846;DHT22;5982;37.494;-8.758;2023-04-25T07:44:05;20.90;99.90
11846;DHT22;5982;37.494;-8.758;2023-04-25T07:46:33;20.90;99.90
11846;DHT22;5982;37.494;-8.758;2023-04-25T07:49:01;20.70;99.90
11846;DHT22;5982;37.494;-8.758;2023-04-25T07:51:29;20.70;99.90
11846;DHT22;5982;37.494;-8.758;2023-04-25T07:53:57;20.70;99.90
11846;DHT22;5982;37.494;-8.758;2023-04-25T07:56:25;20.80;99.90
11846;DHT22;5982;37.494;-8.758;2023-04-25T07:58:54;21.00;99.90
11846;DHT22;5982;37.494;-8.758;2023-04-25T08:01:22;21.10;99.90
11846;DHT22;5982;37.494;-8.758;2023-04-25T08:03:50;21.10;99.90
11846;DHT22;5982;37.494;-8.758;2023-04-25T08:06:18;21.20;99.90
11846;DHT22;5982;37.494;-8.758;2023-04-25T08:08:46;21.50;99.90
11846;DHT22;5982;37.494;-8.758;2023-04-25T08:11:14;21.70;99.90
11846;DHT22;5982;37.494;-8.758;2023-04-25T08:13:42;22.00;99.90
11846;DHT22;5982;37.494;-8.758;2023-04-25T08:16:11;22.40;99.90
11846;DHT22;5982;37.494;-8.758;2023-04-25T08:18:39;22.70;99.90
11846;DHT22;5982;37.494;-8.758;2023-04-25T08:21:07;22.90;99.90
11846;DHT22;5982;37.494;-8.758;2023-04-25T08:23:36;23.00;99.90
11846;DHT22;5982;37.494;-8.758;2023-04-25T08:26:04;23.10;99.90
11846;DHT22;5982;37.494;-8.758;2023-04-25T08:28:32;23.10;99.90
11846;DHT22;5982;37.494;-8.758;2023-04-25T08:31:00;23.10;99.90
11846;DHT22;5982;37.494;-8.758;2023-04-25T08:33:30;23.10;99.90
11846;DHT22;5982;37.494;-8.758;2023-04-25T08:35:58;23.30;99.90
11846;DHT22;5982;37.494;-8.758;2023-04-25T08:38:26;23.30;99.90
11846;DHT22;5982;37.494;-8.758;2023-04-25T08:40:53;23.00;99.90
11846;DHT22;5982;37.494;-8.758;2023-04-25T08:43:22;22.80;99.90
11846;DHT22;5982;37.494;-8.758;2023-04-25T08:45:50;22.50;99.90
11846;DHT22;5982;37.494;-8.758;2023-04-25T08:48:21;22.40;99.90
11846;DHT22;5982;37.494;-8.758;2023-04-25T08:50:51;22.40;99.90
11846;DHT22;5982;37.494;-8.758;2023-04-25T08:53:21;22.40;99.90
11846;DHT22;5982;37.494;-8.758;2023-04-25T08:55:50;22.50;99.90
11846;DHT22;5982;37.494;-8.758;2023-04-25T08:58:19;22.60;99.90
11846;DHT22;5982;37.494;-8.758;2023-04-25T09:00:47;22.70;99.90
11846;DHT22;5982;37.494;-8.758;2023-04-25T09:03:15;22.90;99.90
11846;DHT22;5982;37.494;-8.758;2023-04-25T09:05:43;23.30;99.90
11846;DHT22;5982;37.494;-8.758;2023-04-25T09:08:13;23.70;99.90
11846;DHT22;5982;37.494;-8.758;2023-04-25T09:10:41;23.80;99.90
11846;DHT22;5982;37.494;-8.758;2023-04-25T09:13:09;23.90;99.90
11846;DHT22;5982;37.494;-8.758;2023-04-25T09:15:46;23.80;99.90
11846;DHT22;5982;37.494;-8.758;2023-04-25T09:18:21;23.90;99.90
11846;DHT22;5982;37.494;-8.758;2023-04-25T09:20:51;24.30;99.90
11846;DHT22;5982;37.494;-8.758;2023-04-25T09:23:21;24.30;99.90
11846;DHT22;5982;37.494;-8.758;2023-04-25T09:25:50;24.60;99.90
11846;DHT22;5982;37.494;-8.758;2023-04-25T09:28:23;24.90;99.90
11846;DHT22;5982;37.494;-8.758;2023-04-25T09:30:54;25.00;99.90
11846;DHT22;5982;37.494;-8.758;2023-04-25T09:33:26;25.20;99.90
11846;DHT22;5982;37.494;-8.758;2023-04-25T09:36:01;25.20;99.90
11846;DHT22;5982;37.494;-8.758;2023-04-25T09:38:31;25.40;99.90
11846;DHT22;5982;37.494;-8.758;2023-04-25T09:41:00;25.40;99.90
11846;DHT22;5982;37.494;-8.758;2023-04-25T09:43:27;25.50;99.90
11846;DHT22;5982;37.494;-8.758;2023-04-25T09:45:55;25.70;99.90
11846;DHT22;5982;37.494;-8.758;2023-04-25T09:48:25;25.70;99.90
11846;DHT22;5982;37.494;-8.758;2023-04-25T09:51:06;25.80;99.90
11846;DHT22;5982;37.494;-8.758;2023-04-25T09:53:37;25.80;99.90
11846;DHT22;5982;37.494;-8.758;2023-04-25T09:56:08;26.00;99.90
11846;DHT22;5982;37.494;-8.758;2023-04-25T09:58:38;26.10;99.90
11846;DHT22;5982;37.494;-8.758;2023-04-25T10:01:06;26.10;99.90
11846;DHT22;5982;37.494;-8.758;2023-04-25T10:03:35;26.10;99.90
11846;DHT22;5982;37.494;-8.758;2023-04-25T10:06:06;26.20;99.90
11846;DHT22;5982;37.494;-8.758;2023-04-25T10:08:36;26.40;99.90
11846;DHT22;5982;37.494;-8.758;2023-04-25T10:11:06;26.40;99.90
11846;DHT22;5982;37.494;-8.758;2023-04-25T10:13:35;26.40;99.90
11846;DHT22;5982;37.494;-8.758;2023-04-25T10:16:04;26.50;99.90
11846;DHT22;5982;37.494;-8.758;2023-04-25T10:18:32;26.70;99.90
11846;DHT22;5982;37.494;-8.758;2023-04-25T10:21:00;26.90;99.90
11846;DHT22;5982;37.494;-8.758;2023-04-25T10:23:29;26.90;99.90
11846;DHT22;5982;37.494;-8.758;2023-04-25T10:25:59;27.00;99.90
11846;DHT22;5982;37.494;-8.758;2023-04-25T10:28:27;27.20;99.90
11846;DHT22;5982;37.494;-8.758;2023-04-25T10:30:58;27.30;99.90
11846;DHT22;5982;37.494;-8.758;2023-04-25T10:33:29;27.50;99.90
11846;DHT22;5982;37.494;-8.758;2023-04-25T10:36:08;27.50;99.90
11846;DHT22;5982;37.494;-8.758;2023-04-25T10:38:37;27.60;99.90
11846;DHT22;5982;37.494;-8.758;2023-04-25T10:41:07;27.50;99.90
11846;DHT22;5982;37.494;-8.758;2023-04-25T10:43:36;27.20;99.90
11846;DHT22;5982;37.494;-8.758;2023-04-25T10:46:17;27.10;99.90
11846;DHT22;5982;37.494;-8.758;2023-04-25T10:48:49;27.10;99.90
11846;DHT22;5982;37.494;-8.758;2023-04-25T10:51:19;26.80;99.90
11846;DHT22;5982;37.494;-8.758;2023-04-25T10:53:56;26.50;99.90
11846;DHT22;5982;37.494;-8.758;2023-04-25T10:56:27;26.40;99.90
11846;DHT22;5982;37.494;-8.758;2023-04-25T10:59:08;26.30;99.90
11846;DHT22;5982;37.494;-8.758;2023-04-25T11:01:37;26.10;99.90
11846;DHT22;5982;37.494;-8.758;2023-04-25T11:04:06;25.80;99.90
11846;DHT22;5982;37.494;-8.758;2023-04-25T11:06:51;25.60;99.90
11846;DHT22;5982;37.494;-8.758;2023-04-25T11:09:34;25.30;99.90
11846;DHT22;5982;37.494;-8.758;2023-04-25T11:12:05;25.30;99.90
11846;DHT22;5982;37.494;-8.758;2023-04-25T11:14:35;25.30;99.90
11846;DHT22;5982;37.494;-8.758;2023-04-25T11:17:03;25.40;99.90
11846;DHT22;5982;37.494;-8.758;2023-04-25T11:19:31;25.50;99.90
11846;DHT22;5982;37.494;-8.758;2023-04-25T11:22:00;25.60;99.90
11846;DHT22;5982;37.494;-8.758;2023-04-25T11:24:28;25.70;99.90
11846;DHT22;5982;37.494;-8.758;2023-04-25T11:26:57;25.60;99.90
11846;DHT22;5982;37.494;-8.758;2023-04-25T11:29:27;25.70;99.90
11846;DHT22;5982;37.494;-8.758;2023-04-25T11:31:56;25.80;99.90
11846;DHT22;5982;37.494;-8.758;2023-04-25T11:34:24;25.90;99.90
11846;DHT22;5982;37.494;-8.758;2023-04-25T11:36:53;25.90;99.90
11846;DHT22;5982;37.494;-8.758;2023-04-25T11:39:21;26.00;99.90
11846;DHT22;5982;37.494;-8.758;2023-04-25T11:41:49;26.10;99.90
11846;DHT22;5982;37.494;-8.758;2023-04-25T11:44:17;26.00;99.90
11846;DHT22;5982;37.494;-8.758;2023-04-25T11:46:46;26.10;99.90
11846;DHT22;5982;37.494;-8.758;2023-04-25T11:49:14;26.10;99.90
11846;DHT22;5982;37.494;-8.758;2023-04-25T11:51:44;26.10;99.90
11846;DHT22;5982;37.494;-8.758;2023-04-25T11:54:12;26.20;99.90
11846;DHT22;5982;37.494;-8.758;2023-04-25T11:56:41;26.20;99.90
11846;DHT22;5982;37.494;-8.758;2023-04-25T11:59:09;26.30;99.90
11846;DHT22;5982;37.494;-8.758;2023-04-25T12:01:37;26.30;99.90
11846;DHT22;5982;37.494;-8.758;2023-04-25T12:04:13;26.20;99.90
11846;DHT22;5982;37.494;-8.758;2023-04-25T12:06:42;26.30;99.90
11846;DHT22;5982;37.494;-8.758;2023-04-25T12:09:12;26.30;99.90
11846;DHT22;5982;37.494;-8.758;2023-04-25T12:11:41;26.20;99.90
11846;DHT22;5982;37.494;-8.758;2023-04-25T12:14:09;26.10;99.90
11846;DHT22;5982;37.494;-8.758;2023-04-25T12:16:41;26.10;99.90
11846;DHT22;5982;37.494;-8.758;2023-04-25T12:19:09;26.10;99.90
11846;DHT22;5982;37.494;-8.758;2023-04-25T12:21:38;26.00;99.90
11846;DHT22;5982;37.494;-8.758;2023-04-25T12:24:10;26.20;99.90
11846;DHT22;5982;37.494;-8.758;2023-04-25T12:26:49;26.40;99.90
11846;DHT22;5982;37.494;-8.758;2023-04-25T12:29:18;26.40;99.90
11846;DHT22;5982;37.494;-8.758;2023-04-25T12:31:47;26.40;99.90
11846;DHT22;5982;37.494;-8.758;2023-04-25T12:34:15;26.60;99.90
11846;DHT22;5982;37.494;-8.758;2023-04-25T12:36:45;26.70;99.90
11846;DHT22;5982;37.494;-8.758;2023-04-25T12:39:16;26.80;99.90
11846;DHT22;5982;37.494;-8.758;2023-04-25T12:41:44;27.20;99.90
11846;DHT22;5982;37.494;-8.758;2023-04-25T12:44:12;27.40;99.90
11846;DHT22;5982;37.494;-8.758;2023-04-25T12:46:40;27.30;99.90
11846;DHT22;5982;37.494;-8.758;2023-04-25T12:49:08;27.40;99.90
11846;DHT22;5982;37.494;-8.758;2023-04-25T12:51:36;27.50;99.90
11846;DHT22;5982;37.494;-8.758;2023-04-25T12:54:05;27.50;99.90
11846;DHT22;5982;37.494;-8.758;2023-04-25T12:56:33;27.80;99.90
11846;DHT22;5982;37.494;-8.758;2023-04-25T12:59:02;27.80;99.90
11846;DHT22;5982;37.494;-8.758;2023-04-25T13:01:30;27.80;99.90
11846;DHT22;5982;37.494;-8.758;2023-04-25T13:03:58;27.90;99.90
11846;DHT22;5982;37.494;-8.758;2023-04-25T13:06:26;28.10;99.90
11846;DHT22;5982;37.494;-8.758;2023-04-25T13:08:55;28.10;99.90
11846;DHT22;5982;37.494;-8.758;2023-04-25T13:11:24;28.00;99.90
11846;DHT22;5982;37.494;-8.758;2023-04-25T13:13:52;27.90;99.90
11846;DHT22;5982;37.494;-8.758;2023-04-25T13:16:20;28.00;99.90
11846;DHT22;5982;37.494;-8.758;2023-04-25T13:18:48;28.00;99.90
11846;DHT22;5982;37.494;-8.758;2023-04-25T13:21:16;28.10;99.90
11846;DHT22;5982;37.494;-8.758;2023-04-25T13:23:44;28.10;99.90
11846;DHT22;5982;37.494;-8.758;2023-04-25T13:26:12;27.90;99.90
11846;DHT22;5982;37.494;-8.758;2023-04-25T13:28:41;27.70;99.90
11846;DHT22;5982;37.494;-8.758;2023-04-25T13:31:09;27.60;99.90
11846;DHT22;5982;37.494;-8.758;2023-04-25T13:33:37;27.60;99.90
11846;DHT22;5982;37.494;-8.758;2023-04-25T13:36:04;27.60;99.90
11846;DHT22;5982;37.494;-8.758;2023-04-25T13:38:32;27.60;99.90
11846;DHT22;5982;37.494;-8.758;2023-04-25T13:41:00;27.80;99.90
11846;DHT22;5982;37.494;-8.758;2023-04-25T13:43:28;27.60;99.90
11846;DHT22;5982;37.494;-8.758;2023-04-25T13:45:58;27.70;99.90
11846;DHT22;5982;37.494;-8.758;2023-04-25T13:48:26;27.60;99.90
11846;DHT22;5982;37.494;-8.758;2023-04-25T13:50:53;27.60;99.90
11846;DHT22;5982;37.494;-8.758;2023-04-25T13:53:21;27.60;99.90
11846;DHT22;5982;37.494;-8.758;2023-04-25T13:55:49;27.50;99.90
11846;DHT22;5982;37.494;-8.758;2023-04-25T13:58:17;27.70;99.90
11846;DHT22;5982;37.494;-8.758;2023-04-25T14:00:46;27.70;99.90
11846;DHT22;5982;37.494;-8.758;2023-04-25T14:03:15;27.90;99.90
11846;DHT22;5982;37.494;-8.758;2023-04-25T14:05:43;28.10;99.90
11846;DHT22;5982;37.494;-8.758;2023-04-25T14:08:10;28.10;99.90
11846;DHT22;5982;37.494;-8.758;2023-04-25T14:10:38;28.00;99.90
11846;DHT22;5982;37.494;-8.758;2023-04-25T14:13:06;28.00;99.90
11846;DHT22;5982;37.494;-8.758;2023-04-25T14:15:34;27.90;99.90
11846;DHT22;5982;37.494;-8.758;2023-04-25T14:18:02;27.90;99.90
11846;DHT22;5982;37.494;-8.758;2023-04-25T14:20:31;27.80;99.90
11846;DHT22;5982;37.494;-8.758;2023-04-25T14:22:59;27.70;99.90
11846;DHT22;5982;37.494;-8.758;2023-04-25T14:25:27;27.60;99.90
11846;DHT22;5982;37.494;-8.758;2023-04-25T14:27:54;27.50;99.90
11846;DHT22;5982;37.494;-8.758;2023-04-25T14:30:22;27.60;99.90
11846;DHT22;5982;37.494;-8.758;2023-04-25T14:32:50;27.60;99.90
11846;DHT22;5982;37.494;-8.758;2023-04-25T14:35:18;27.50;99.90
11846;DHT22;5982;37.494;-8.758;2023-04-25T14:37:47;27.30;99.90
11846;DHT22;5982;37.494;-8.758;2023-04-25T14:40:15;27.20;99.90
11846;DHT22;5982;37.494;-8.758;2023-04-25T14:42:43;27.20;99.90
11846;DHT22;5982;37.494;-8.758;2023-04-25T14:45:11;27.10;99.90
11846;DHT22;5982;37.494;-8.758;2023-04-25T14:47:38;27.20;99.90
11846;DHT22;5982;37.494;-8.758;2023-04-25T14:50:07;27.40;99.90
11846;DHT22;5982;37.494;-8.758;2023-04-25T14:52:35;27.60;99.90
11846;DHT22;5982;37.494;-8.758;2023-04-25T14:55:05;27.60;99.90
11846;DHT22;5982;37.494;-8.758;2023-04-25T14:57:33;27.50;99.90
11846;DHT22;5982;37.494;-8.758;2023-04-25T15:00:01;27.60;99.90
11846;DHT22;5982;37.494;-8.758;2023-04-25T15:02:31;27.40;99.90
11846;DHT22;5982;37.494;-8.758;2023-04-25T15:04:58;27.30;99.90
11846;DHT22;5982;37.494;-8.758;2023-04-25T15:07:26;27.30;99.90
11846;DHT22;5982;37.494;-8.758;2023-04-25T15:09:54;27.20;99.90
11846;DHT22;5982;37.494;-8.758;2023-04-25T15:12:24;27.20;99.90
11846;DHT22;5982;37.494;-8.758;2023-04-25T15:14:54;27.30;99.90
11846;DHT22;5982;37.494;-8.758;2023-04-25T15:17:21;27.20;99.90
11846;DHT22;5982;37.494;-8.758;2023-04-25T15:19:49;27.10;99.90
11846;DHT22;5982;37.494;-8.758;2023-04-25T15:22:17;27.20;99.90
11846;DHT22;5982;37.494;-8.758;2023-04-25T15:24:45;27.30;99.90
11846;DHT22;5982;37.494;-8.758;2023-04-25T15:27:12;27.20;99.90
11846;DHT22;5982;37.494;-8.758;2023-04-25T15:29:42;27.00;99.90
11846;DHT22;5982;37.494;-8.758;2023-04-25T15:32:10;27.00;99.90
11846;DHT22;5982;37.494;-8.758;2023-04-25T15:34:37;27.00;99.90
11846;DHT22;5982;37.494;-8.758;2023-04-25T15:37:05;27.00;99.90
11846;DHT22;5982;37.494;-8.758;2023-04-25T15:39:33;26.90;99.90